Time;durP1;ratioP1;P1;durP2;ratioP2;P2;SDS_P1;SDS_P2;PMS_P1;PMS_P2;Temp;Humidity;BMP_temperature;BMP_pressure;BME280_temperature;BME280_humidity;BME280_pressure;Samples;Min_cycle;Max_cycle;Signal;HPM_P1;HPM_P2
2022/06/06 00:00:49;;;;;;;13.73;10.32;;;;;;;22.06;51.91;93462.34;5012949;28;20052;-88
2022/06/06 00:03:15;;;;;;;12.57;9.57;;;;;;;22.04;51.70;93462.16;4995949;28;20124;-88
2022/06/06 00:05:42;;;;;;;10.80;8.82;;;;;;;22.03;51.86;93462.69;5027708;28;20042;-87
2022/06/06 00:08:08;;;;;;;9.52;8.52;;;;;;;22.02;51.93;93445.41;4996241;28;20050;-87
2022/06/06 00:10:33;;;;;;;11.38;9.77;;;;;;;22.04;51.53;93461.41;5013187;28;20029;-88
2022/06/06 00:12:59;;;;;;;10.57;9.30;;;;;;;22.05;51.75;93458.13;5013161;28;20033;-88
2022/06/06 00:15:24;;;;;;;8.75;7.82;;;;;;;22.03;51.52;93457.91;5008360;28;20052;-87
2022/06/06 00:17:49;;;;;;;10.07;8.98;;;;;;;22.03;51.84;93455.16;4995184;28;20050;-87
2022/06/06 00:20:16;;;;;;;10.02;8.63;;;;;;;22.02;51.64;93461.94;5011670;28;20091;-88
2022/06/06 00:22:42;;;;;;;10.05;8.90;;;;;;;22.04;52.09;93466.91;4995701;28;20444;-87
2022/06/06 00:25:07;;;;;;;11.02;8.07;;;;;;;22.02;51.71;93459.19;4996760;28;20060;-89
2022/06/06 00:27:33;;;;;;;10.85;8.70;;;;;;;22.04;51.91;93461.41;5010736;28;20080;-87
2022/06/06 00:29:58;;;;;;;12.13;9.68;;;;;;;22.03;51.48;93457.19;4996632;28;20516;-88
2022/06/06 00:35:08;;;;;;;10.23;8.77;;;;;;;22.02;51.46;93441.94;5027550;28;20048;-88
2022/06/06 00:37:34;;;;;;;11.32;9.52;;;;;;;22.03;51.78;93429.66;5012768;28;20037;-88
2022/06/06 00:40:01;;;;;;;11.38;9.30;;;;;;;22.01;51.85;93437.69;5006878;28;20041;-87
2022/06/06 00:42:31;;;;;;;10.65;9.38;;;;;;;22.00;51.68;93441.69;5012762;28;20037;-88
2022/06/06 00:45:15;;;;;;;11.07;8.75;;;;;;;22.01;51.73;93437.69;5009772;28;20045;-88
2022/06/06 00:47:40;;;;;;;11.82;9.68;;;;;;;22.02;51.47;93431.66;5029900;28;20049;-88
2022/06/06 00:50:10;;;;;;;10.18;8.27;;;;;;;21.99;51.77;93423.69;5011557;28;20037;-88
2022/06/06 00:52:37;;;;;;;9.90;8.48;;;;;;;22.00;51.67;93414.94;5028841;28;20069;-87
2022/06/06 00:55:08;;;;;;;11.00;8.65;;;;;;;22.00;51.56;93416.91;5010640;28;20116;-87
2022/06/06 00:57:35;;;;;;;10.65;8.25;;;;;;;22.01;51.55;93418.44;4996233;28;20399;-87
2022/06/06 01:00:03;;;;;;;9.60;8.38;;;;;;;21.99;51.39;93420.94;4994111;28;20092;-88
2022/06/06 01:02:28;;;;;;;10.15;8.25;;;;;;;21.99;51.63;93413.44;4988594;28;20534;-87
2022/06/06 01:04:54;;;;;;;9.77;8.32;;;;;;;21.99;51.70;93407.91;4999524;28;20042;-88
2022/06/06 01:07:19;;;;;;;8.88;7.40;;;;;;;21.99;51.44;93416.19;5003834;28;20033;-88
2022/06/06 01:09:45;;;;;;;10.38;8.35;;;;;;;21.98;51.71;93411.22;5011731;28;20037;-87
2022/06/06 01:12:15;;;;;;;8.68;7.68;;;;;;;21.99;51.57;93423.69;5024309;28;20488;-87
2022/06/06 01:14:47;;;;;;;9.80;7.97;;;;;;;21.98;52.14;93433.22;5011367;28;20267;-88
2022/06/06 01:17:47;;;;;;;9.02;7.25;;;;;;;21.97;51.74;93424.22;5010012;28;20303;-87
2022/06/06 01:20:27;;;;;;;10.40;8.38;;;;;;;21.98;51.64;93435.97;4977108;28;20064;-87
2022/06/06 01:23:14;;;;;;;10.57;8.65;;;;;;;21.98;51.57;93427.72;5002687;28;20048;-88
2022/06/06 01:25:42;;;;;;;7.85;6.88;;;;;;;21.97;51.67;93432.50;5033490;28;20053;-88
2022/06/06 01:28:45;;;;;;;9.48;7.43;;;;;;;21.97;51.63;93440.00;5023815;28;20140;-88
2022/06/06 01:31:17;;;;;;;9.25;7.60;;;;;;;21.95;51.78;93437.78;5011040;28;20037;-87
2022/06/06 01:33:56;;;;;;;8.32;7.40;;;;;;;21.96;51.79;93447.53;4979738;28;20046;-88
2022/06/06 01:36:22;;;;;;;10.38;8.02;;;;;;;21.94;51.60;93452.81;5000813;28;20125;-87
2022/06/06 01:38:49;;;;;;;10.40;7.85;;;;;;;21.94;51.55;93457.59;5011341;28;20378;-88
2022/06/06 01:41:20;;;;;;;8.23;7.35;;;;;;;21.95;51.82;93470.81;5004390;28;20034;-88
2022/06/06 01:43:51;;;;;;;8.73;7.40;;;;;;;21.94;51.62;93474.84;5010937;28;20067;-88
2022/06/06 01:46:20;;;;;;;7.75;6.93;;;;;;;21.94;51.73;93474.09;5010460;28;20452;-87
2022/06/06 01:48:45;;;;;;;8.52;7.32;;;;;;;21.94;51.93;93476.84;5011491;28;20033;-88
2022/06/06 01:51:20;;;;;;;9.55;7.32;;;;;;;21.94;51.69;93466.56;5010175;28;20044;-88
2022/06/06 01:53:46;;;;;;;9.20;7.57;;;;;;;21.96;51.83;93482.56;5002441;28;20044;-88
2022/06/06 01:56:23;;;;;;;9.40;7.68;;;;;;;21.96;51.62;93488.81;5010398;28;20483;-87
2022/06/06 01:58:48;;;;;;;9.05;7.97;;;;;;;21.95;51.49;93481.81;5011442;28;20032;-88
2022/06/06 02:01:15;;;;;;;9.20;7.50;;;;;;;21.98;51.60;93491.03;5010127;28;20033;-88
2022/06/06 02:03:41;;;;;;;9.43;7.28;;;;;;;21.98;51.73;93488.28;4991531;28;20065;-88
2022/06/06 02:06:06;;;;;;;8.68;7.05;;;;;;;21.94;51.65;93491.34;5007570;28;20045;-88
2022/06/06 02:08:32;;;;;;;8.40;7.50;;;;;;;21.95;51.37;93492.84;5010614;28;20041;-88
2022/06/06 02:10:57;;;;;;;8.20;6.85;;;;;;;21.95;51.68;93495.59;5010428;28;20342;-88
2022/06/06 02:13:23;;;;;;;9.57;7.68;;;;;;;21.93;51.65;93513.91;5026274;28;20479;-87
2022/06/06 02:15:48;;;;;;;9.43;7.60;;;;;;;21.94;51.70;93496.13;4994340;28;20041;-88
2022/06/06 02:18:13;;;;;;;8.75;7.65;;;;;;;21.93;51.77;93502.88;5025356;28;20046;-88
2022/06/06 02:20:39;;;;;;;9.15;7.35;;;;;;;21.93;51.64;93498.13;4993836;28;20041;-87
2022/06/06 02:23:04;;;;;;;9.07;6.97;;;;;;;21.93;51.82;93503.63;4993003;28;20036;-89
2022/06/06 02:25:30;;;;;;;8.40;6.88;;;;;;;21.94;51.48;93496.13;5010027;28;20408;-88
2022/06/06 02:27:56;;;;;;;9.10;7.30;;;;;;;21.92;51.57;93491.13;4993119;28;20496;-88
2022/06/06 02:30:24;;;;;;;9.07;6.90;;;;;;;21.92;51.89;93493.91;4993680;28;20523;-88
2022/06/06 02:32:49;;;;;;;9.07;7.07;;;;;;;21.93;51.54;93495.38;4991165;28;20076;-88
2022/06/06 02:35:17;;;;;;;7.85;6.43;;;;;;;21.92;51.84;93506.91;4990698;28;20438;-88
2022/06/06 02:37:44;;;;;;;8.70;7.47;;;;;;;21.93;51.66;93508.41;5001355;28;20125;-87
2022/06/06 02:40:11;;;;;;;9.30;7.47;;;;;;;21.92;51.66;93504.91;4993438;28;20068;-88
2022/06/06 02:42:37;;;;;;;8.38;6.72;;;;;;;21.91;51.43;93495.16;5009526;28;20037;-88
2022/06/06 02:45:04;;;;;;;7.05;6.30;;;;;;;21.93;51.57;93505.66;4990369;28;20045;-87
2022/06/06 02:47:29;;;;;;;8.85;7.45;;;;;;;21.91;51.87;93508.94;5026238;28;20120;-88
2022/06/06 02:49:55;;;;;;;7.75;6.50;;;;;;;21.92;51.59;93504.16;5026200;28;20238;-87
2022/06/06 02:52:20;;;;;;;8.02;6.80;;;;;;;21.92;51.64;93512.41;5005713;28;20045;-88
2022/06/06 02:54:46;;;;;;;7.55;6.53;;;;;;;21.91;51.81;93514.44;4994040;28;20033;-88
2022/06/06 02:57:11;;;;;;;7.25;6.10;;;;;;;21.90;51.59;93513.69;4983629;28;20508;-88
2022/06/06 02:59:36;;;;;;;7.60;6.07;;;;;;;21.89;51.66;93508.72;4990376;28;20034;-87
2022/06/06 03:02:02;;;;;;;8.00;6.45;;;;;;;21.88;51.75;93504.47;4979162;28;20038;-88
2022/06/06 03:04:28;;;;;;;7.72;6.28;;;;;;;21.89;51.80;93511.47;4992906;28;20041;-87
2022/06/06 03:06:56;;;;;;;8.93;7.03;;;;;;;21.88;51.76;93507.97;4992759;28;20029;-87
2022/06/06 03:09:41;;;;;;;6.90;6.03;;;;;;;21.88;51.68;93505.22;5025315;28;20235;-87
2022/06/06 03:12:12;;;;;;;7.80;6.68;;;;;;;21.91;51.62;93508.94;5025981;28;20037;-88
2022/06/06 03:14:59;;;;;;;7.65;6.28;;;;;;;21.88;51.81;93502.47;5026095;28;20373;-88
2022/06/06 03:21:11;;;;;;;8.65;6.82;;;;;;;21.87;51.73;93495.47;5007986;28;20453;-87
2022/06/06 03:23:44;;;;;;;5.85;5.25;;;;;;;21.87;51.82;93506.50;4999897;28;20038;-87
2022/06/06 03:26:33;;;;;;;7.65;5.97;;;;;;;21.88;51.64;93507.22;5010875;28;20045;-88
2022/06/06 03:29:21;;;;;;;7.03;5.97;;;;;;;21.87;51.76;93512.00;5009723;28;20104;-88
2022/06/06 03:31:58;;;;;;;6.70;5.45;;;;;;;21.86;51.64;93518.78;5025904;28;20045;-87
2022/06/06 03:34:31;;;;;;;8.07;6.20;;;;;;;21.86;51.84;93510.53;5008978;28;20396;-88
2022/06/06 03:37:19;;;;;;;6.32;5.70;;;;;;;21.87;52.08;93516.75;5009690;28;20037;-88
2022/06/06 03:40:18;;;;;;;7.38;6.22;;;;;;;21.86;51.75;93502.28;5026280;28;20046;-88
2022/06/06 03:42:52;;;;;;;7.88;6.43;;;;;;;21.86;51.70;93516.03;5011457;28;20041;-89
2022/06/06 03:45:30;;;;;;;7.68;6.20;;;;;;;21.85;51.57;93522.06;5008492;28;20045;-89
2022/06/06 03:48:07;;;;;;;8.50;6.57;;;;;;;21.86;51.77;93516.03;5024829;28;20041;-87
2022/06/06 03:51:18;;;;;;;8.48;6.15;;;;;;;21.87;51.73;93533.28;5025362;28;20045;-88
2022/06/06 03:54:05;;;;;;;8.05;5.72;;;;;;;21.86;51.85;93529.06;5006200;28;20068;-88
2022/06/06 03:56:44;;;;;;;8.13;6.53;;;;;;;21.86;51.70;93529.06;5010779;28;20037;-88
2022/06/06 03:59:10;;;;;;;7.07;5.95;;;;;;;21.85;51.78;93530.34;4993178;28;20049;-86
2022/06/06 04:01:39;;;;;;;7.18;6.07;;;;;;;21.85;51.77;93528.31;5008235;28;20458;-89
2022/06/06 04:04:05;;;;;;;6.20;5.50;;;;;;;21.85;51.58;93527.59;5025064;28;20496;-88
2022/06/06 04:06:32;;;;;;;6.65;5.57;;;;;;;21.85;51.64;93524.84;5009398;28;20044;-89
2022/06/06 04:08:57;;;;;;;6.95;6.10;;;;;;;21.85;51.72;93533.09;5009161;28;20041;-88
2022/06/06 04:11:30;;;;;;;7.50;6.35;;;;;;;21.85;51.50;93536.59;4992692;28;20053;-87
2022/06/06 04:13:58;;;;;;;6.55;5.72;;;;;;;21.85;51.74;93536.59;5025841;28;20106;-88
2022/06/06 04:16:30;;;;;;;7.97;5.75;;;;;;;21.87;51.63;93542.28;5026450;28;20041;-88
2022/06/06 04:19:04;;;;;;;6.57;5.88;;;;;;;21.85;51.82;93547.59;5010979;28;20566;-89
2022/06/06 04:21:54;;;;;;;5.75;5.03;;;;;;;21.85;51.61;93550.34;5023418;28;20091;-88
2022/06/06 04:24:42;;;;;;;6.90;5.25;;;;;;;21.86;51.53;93545.56;5026225;28;20042;-87
2022/06/06 04:27:16;;;;;;;7.28;5.57;;;;;;;21.86;51.63;93556.59;5023467;28;20515;-88
2022/06/06 04:30:04;;;;;;;6.10;5.20;;;;;;;21.85;51.58;93552.34;5010923;28;20052;-89
2022/06/06 04:32:47;;;;;;;6.95;5.88;;;;;;;21.86;51.59;93551.81;5012191;28;20065;-88
2022/06/06 04:35:18;;;;;;;5.82;5.03;;;;;;;21.86;51.82;93553.84;5012776;28;20052;-87
2022/06/06 04:37:49;;;;;;;6.20;5.13;;;;;;;21.85;51.87;93555.84;5025321;28;20093;-87
2022/06/06 04:40:37;;;;;;;7.88;4.60;;;;;;;21.85;51.75;93566.13;5009299;28;20502;-88
2022/06/06 04:43:11;;;;;;;5.65;5.05;;;;;;;21.84;51.84;93557.13;4994434;28;20049;-87
2022/06/06 04:45:36;;;;;;;6.50;5.18;;;;;;;21.85;51.78;93560.59;4993176;28;20487;-88
2022/06/06 04:48:02;;;;;;;5.97;4.78;;;;;;;21.87;51.68;93560.78;5023500;28;20125;-88
2022/06/06 04:50:28;;;;;;;10.55;4.95;;;;;;;21.91;51.47;93566.72;4992691;28;20054;-89
2022/06/06 04:52:56;;;;;;;6.60;5.55;;;;;;;21.90;51.53;93565.97;4992811;28;20049;-88
2022/06/06 04:55:22;;;;;;;5.65;4.72;;;;;;;21.93;51.46;93561.44;4991974;28;20038;-87
2022/06/06 04:57:51;;;;;;;4.90;4.28;;;;;;;21.87;51.71;93556.03;4998800;28;20040;-87
2022/06/06 05:00:16;;;;;;;4.80;4.22;;;;;;;21.88;51.51;93571.28;5011967;28;20033;-88
2022/06/06 05:02:42;;;;;;;6.13;4.80;;;;;;;21.87;51.35;93564.28;5012785;28;20115;-89
2022/06/06 05:05:09;;;;;;;6.28;4.57;;;;;;;21.92;51.64;93567.47;5009535;28;20041;-88
2022/06/06 05:08:01;;;;;;;5.70;4.32;;;;;;;21.88;51.55;93565.78;4992854;28;20064;-88
2022/06/06 05:10:57;;;;;;;5.72;4.30;;;;;;;21.88;51.41;93582.28;5019846;28;20072;-88
2022/06/06 05:13:33;;;;;;;5.82;4.72;;;;;;;21.90;51.50;93579.75;5028311;28;20041;-87
2022/06/06 05:15:58;;;;;;;5.03;4.35;;;;;;;21.90;51.43;93579.75;5008927;28;20045;-88
2022/06/06 05:18:48;;;;;;;7.32;4.93;;;;;;;21.90;51.28;93577.00;5022455;28;20049;-88
2022/06/06 05:21:18;;;;;;;493.55;436.73;;;;;;;21.89;51.91;93575.50;5001998;28;20049;-88
2022/06/06 05:24:06;;;;;;;107.80;83.05;;;;;;;21.88;51.44;93576.03;5011150;28;20160;-88
2022/06/06 05:26:51;;;;;;;40.20;29.83;;;;;;;21.88;51.44;93574.03;5052216;28;20037;-88
2022/06/06 05:29:38;;;;;;;5.75;4.95;;;;;;;21.89;51.40;93564.50;5029162;28;20036;-89
2022/06/06 05:32:32;;;;;;;5.03;4.20;;;;;;;21.92;51.39;93570.97;5033508;28;20495;-88
2022/06/06 05:35:07;;;;;;;4.82;4.30;;;;;;;21.94;51.25;93568.41;5033631;28;20036;-89
2022/06/06 05:37:54;;;;;;;5.13;4.35;;;;;;;21.94;51.23;93573.19;5051155;28;20379;-89
2022/06/06 05:40:25;;;;;;;5.88;4.43;;;;;;;21.94;51.45;93571.16;5047246;28;20082;-88
2022/06/06 05:42:51;;;;;;;5.57;4.38;;;;;;;21.95;51.14;93566.41;5054668;28;20555;-88
2022/06/06 05:45:30;;;;;;;5.68;3.95;;;;;;;21.95;51.27;93575.41;5064479;28;20140;-88
2022/06/06 05:48:01;;;;;;;7.38;4.82;;;;;;;21.97;51.32;93566.63;5050798;28;20047;-88
2022/06/06 05:50:53;;;;;;;4.97;4.18;;;;;;;21.97;51.38;93563.88;5068193;28;20043;-88
2022/06/06 05:53:21;;;;;;;5.50;4.20;;;;;;;21.98;51.04;93568.09;5047665;28;20197;-88
2022/06/06 05:56:04;;;;;;;5.35;3.97;;;;;;;21.99;51.17;93577.84;5049088;28;20041;-89
2022/06/06 05:58:40;;;;;;;5.43;4.47;;;;;;;21.99;51.19;93564.81;5040041;28;20411;-88
2022/06/06 06:01:39;;;;;;;4.95;3.55;;;;;;;22.01;51.21;93575.34;5045076;28;20040;-88
2022/06/06 06:04:13;;;;;;;4.75;3.95;;;;;;;22.04;50.94;93579.78;5068193;28;20177;-88
2022/06/06 06:07:03;;;;;;;4.53;3.13;;;;;;;22.06;51.11;93582.75;5056437;28;20068;-88
2022/06/06 06:09:55;;;;;;;5.40;4.27;;;;;;;22.05;51.18;93573.75;5031929;28;20037;-88
2022/06/06 06:12:40;;;;;;;4.05;3.65;;;;;;;22.07;50.99;93567.72;5033311;28;20040;-88
2022/06/06 06:15:33;;;;;;;4.35;3.75;;;;;;;22.07;51.04;93582.22;5048599;28;20549;-88
2022/06/06 06:18:00;;;;;;;4.60;3.85;;;;;;;22.09;50.97;93582.41;5045836;28;20048;-89
2022/06/06 06:20:29;;;;;;;4.50;3.65;;;;;;;22.11;51.15;93576.38;5029631;28;20112;-89
2022/06/06 06:23:08;;;;;;;3.42;2.95;;;;;;;22.11;50.89;93574.34;5030726;28;20033;-88
2022/06/06 06:25:34;;;;;;;5.00;3.55;;;;;;;22.14;50.90;93578.81;5015306;28;20049;-88
2022/06/06 06:28:06;;;;;;;3.80;3.10;;;;;;;22.14;50.58;93576.06;5014252;28;20048;-89
2022/06/06 06:30:39;;;;;;;6.75;3.40;;;;;;;22.15;50.76;93583.03;5046091;28;20161;-88
2022/06/06 06:33:28;;;;;;;3.80;3.35;;;;;;;22.18;50.91;93576.47;5033572;28;20672;-88
2022/06/06 06:36:09;;;;;;;4.32;2.95;;;;;;;22.16;50.48;93587.28;5033674;28;20044;-88
2022/06/06 06:38:40;;;;;;;3.85;3.13;;;;;;;22.21;50.43;93593.94;5045755;28;20048;-88
2022/06/06 06:41:16;;;;;;;3.20;2.60;;;;;;;22.19;51.06;93596.50;5029567;28;20044;-88
2022/06/06 06:43:58;;;;;;;4.25;3.30;;;;;;;22.16;50.73;93595.53;5013501;28;20094;-88
2022/06/06 06:46:57;;;;;;;5.07;2.70;;;;;;;22.17;50.86;93605.28;5029807;28;20167;-88
2022/06/06 06:49:41;;;;;;;5.40;2.95;;;;;;;22.17;50.70;93605.28;5040112;28;20503;-88
2022/06/06 06:52:31;;;;;;;4.10;2.78;;;;;;;22.18;50.57;93603.28;5033592;28;20041;-88
2022/06/06 06:55:15;;;;;;;3.42;3.10;;;;;;;22.19;50.53;93604.75;5037230;28;20045;-88
2022/06/06 06:57:56;;;;;;;3.20;2.63;;;;;;;22.18;50.56;93606.03;5029415;28;20056;-88
2022/06/06 07:00:22;;;;;;;;;;;;;;;22.19;50.76;93613.00;5047706;28;20516;-88
2022/06/06 07:08:48;;;;;;;3.58;3.20;;;;;;;22.16;50.64;93603.06;5046480;28;20039;-88
2022/06/06 07:11:13;;;;;;;3.88;2.53;;;;;;;22.18;50.66;93608.78;5046779;28;20049;-88
2022/06/06 07:14:16;;;;;;;4.78;2.92;;;;;;;22.19;50.79;93597.22;5045398;28;20041;-88
2022/06/06 07:16:42;;;;;;;6.07;2.50;;;;;;;22.21;50.66;93599.47;5029039;28;20033;-89
2022/06/06 07:19:10;;;;;;;3.38;2.67;;;;;;;22.27;50.52;93600.09;5016376;28;20385;-88
2022/06/06 07:21:35;;;;;;;2.70;2.35;;;;;;;22.28;50.51;93607.09;5028713;28;20033;-88
2022/06/06 07:24:04;;;;;;;3.75;2.95;;;;;;;22.26;50.44;93604.13;5013126;28;20043;-89
2022/06/06 07:26:30;;;;;;;4.38;2.60;;;;;;;22.31;50.47;93594.25;4995939;28;20465;-89
2022/06/06 07:28:55;;;;;;;3.08;2.75;;;;;;;22.28;50.36;93598.81;5012912;28;20087;-88
2022/06/06 07:31:45;;;;;;;3.05;2.53;;;;;;;22.32;50.25;93601.22;5028041;28;20034;-88
2022/06/06 07:34:14;;;;;;;3.55;3.25;;;;;;;22.31;50.53;93599.75;5046982;28;20492;-88
2022/06/06 07:36:58;;;;;;;3.83;3.35;;;;;;;22.28;50.41;93603.59;5012455;28;20063;-88
2022/06/06 07:39:27;;;;;;;3.00;2.63;;;;;;;22.27;50.33;93602.84;5046840;28;20052;-88
2022/06/06 07:41:56;;;;;;;3.42;2.45;;;;;;;22.28;50.49;93620.84;5028568;28;20087;-88
2022/06/06 07:44:36;;;;;;;3.38;2.60;;;;;;;22.27;50.48;93611.13;5045243;28;20057;-88
2022/06/06 07:47:07;;;;;;;3.23;2.77;;;;;;;22.27;50.43;93608.34;5011834;28;20388;-88
2022/06/06 07:49:52;;;;;;;2.40;2.10;;;;;;;22.32;50.43;93624.00;5049157;28;20798;-89
2022/06/06 07:52:33;;;;;;;2.80;2.40;;;;;;;22.33;50.40;93625.50;5031506;28;20043;-89
2022/06/06 07:55:02;;;;;;;4.35;2.70;;;;;;;22.31;50.55;93616.28;5067269;28;20070;-88
2022/06/06 07:57:48;;;;;;;2.90;2.05;;;;;;;22.28;50.36;93612.59;5031646;28;20167;-88
2022/06/06 08:00:19;;;;;;;3.00;2.15;;;;;;;22.28;50.50;93617.38;5011931;28;20033;-88
2022/06/06 08:03:26;;;;;;;4.68;2.67;;;;;;;22.29;50.56;93607.81;5029278;28;20343;-87
2022/06/06 08:06:12;;;;;;;5.22;2.90;;;;;;;22.29;50.38;93607.81;5032730;28;20045;-89
2022/06/06 08:08:55;;;;;;;2.65;1.83;;;;;;;22.25;50.41;93601.91;5032890;28;20419;-88
2022/06/06 08:11:40;;;;;;;2.95;2.45;;;;;;;22.27;50.50;93597.34;5023023;28;20037;-88
2022/06/06 08:14:17;;;;;;;3.25;2.53;;;;;;;22.28;50.69;93592.56;5050519;28;20047;-88
2022/06/06 08:17:02;;;;;;;2.28;1.90;;;;;;;22.31;50.47;93599.75;5049476;28;20033;-88
2022/06/06 08:19:46;;;;;;;7.13;2.67;;;;;;;22.30;50.63;93601.06;5043014;28;20045;-88
2022/06/06 08:22:11;;;;;;;3.65;2.22;;;;;;;22.34;50.38;93606.94;5060335;28;20052;-89
2022/06/06 08:24:39;;;;;;;4.63;2.80;;;;;;;22.34;50.27;93615.22;5035795;28;20033;-88
2022/06/06 08:27:10;;;;;;;6.03;2.25;;;;;;;22.34;50.21;93604.19;5035740;28;20037;-87
2022/06/06 08:29:39;;;;;;;2.78;2.00;;;;;;;22.36;50.26;93602.41;5025744;28;20041;-89
2022/06/06 08:32:08;;;;;;;2.28;2.08;;;;;;;22.35;50.31;93608.44;5011065;28;20060;-88
2022/06/06 08:34:33;;;;;;;3.17;2.42;;;;;;;22.36;50.28;93616.16;5000580;28;20075;-88
2022/06/06 08:37:13;;;;;;;2.63;2.20;;;;;;;22.37;50.27;93616.91;5016820;28;20119;-88
2022/06/06 08:39:54;;;;;;;2.88;2.10;;;;;;;22.36;50.24;93616.16;5033585;28;20049;-89
2022/06/06 08:42:52;;;;;;;2.47;2.00;;;;;;;22.37;50.30;93605.88;5031431;28;20041;-89
2022/06/06 08:45:32;;;;;;;2.05;1.55;;;;;;;22.38;50.06;93608.13;5032221;28;20053;-89
2022/06/06 08:48:06;;;;;;;2.65;1.60;;;;;;;22.35;50.27;93608.44;5050146;28;20048;-88
2022/06/06 08:50:51;;;;;;;2.00;1.77;;;;;;;22.35;50.62;93609.19;5017267;28;20064;-89
2022/06/06 08:53:44;;;;;;;4.53;2.22;;;;;;;22.37;50.23;93609.38;5053480;28;20503;-89
2022/06/06 08:56:15;;;;;;;2.35;2.10;;;;;;;22.38;50.24;93618.41;5036781;28;20041;-89
2022/06/06 08:59:05;;;;;;;2.85;1.80;;;;;;;22.35;50.29;93622.94;5053560;28;20037;-89
2022/06/06 09:01:46;;;;;;;2.65;2.45;;;;;;;22.39;50.29;93617.13;5061292;28;20127;-89
2022/06/06 09:04:42;;;;;;;2.13;1.90;;;;;;;22.37;50.25;93623.16;5031237;28;20825;-89
2022/06/06 09:07:28;;;;;;;3.72;1.92;;;;;;;22.40;50.21;93619.34;5020822;28;20072;-88
2022/06/06 09:09:59;;;;;;;2.17;1.95;;;;;;;22.38;50.52;93621.88;5051452;28;20135;-89
2022/06/06 09:12:59;;;;;;;4.03;2.28;;;;;;;22.37;50.34;93619.66;5031449;28;20033;-89
2022/06/06 09:16:05;;;;;;;3.03;2.70;;;;;;;22.35;50.31;93613.94;5013880;28;20045;-89
2022/06/06 09:19:13;;;;;;;3.20;2.13;;;;;;;22.36;50.25;93607.16;5034083;28;20029;-89
2022/06/06 09:21:46;;;;;;;3.30;2.35;;;;;;;22.37;50.42;93608.66;5044322;28;20479;-89
2022/06/06 09:24:30;;;;;;;1.70;1.60;;;;;;;22.36;50.31;93612.66;5039674;28;20041;-89
2022/06/06 09:27:29;;;;;;;2.35;1.77;;;;;;;22.37;50.19;93608.66;5057017;28;20037;-89
2022/06/06 09:30:09;;;;;;;2.22;1.95;;;;;;;22.37;50.27;93605.88;5067957;28;20051;-88
2022/06/06 09:33:14;;;;;;;2.85;2.10;;;;;;;22.37;50.26;93609.38;5039149;28;20033;-89
2022/06/06 09:36:00;;;;;;;3.85;1.88;;;;;;;22.39;50.39;93611.63;5052321;28;20407;-87
2022/06/06 09:38:47;;;;;;;3.40;2.22;;;;;;;22.40;50.18;93610.34;5046828;28;20032;-88
2022/06/06 09:41:27;;;;;;;2.38;2.10;;;;;;;22.41;50.22;93607.06;5057266;28;20032;-88
2022/06/06 09:44:12;;;;;;;2.38;2.15;;;;;;;22.37;50.34;93614.91;5050778;28;20083;-88
2022/06/06 09:47:08;;;;;;;5.45;2.10;;;;;;;22.39;50.20;93614.38;5050729;28;20029;-89
2022/06/06 09:49:55;;;;;;;2.70;2.05;;;;;;;22.40;50.13;93616.59;5034955;28;20529;-89
2022/06/06 09:52:42;;;;;;;3.28;1.67;;;;;;;22.41;50.03;93612.56;5048515;28;20041;-89
2022/06/06 10:01:22;;;;;;;2.00;1.67;;;;;;;22.40;50.21;93624.13;5053675;28;20044;-89
2022/06/06 10:04:22;;;;;;;1.65;1.40;;;;;;;22.40;50.30;93618.59;5015981;28;20103;-89
2022/06/06 10:07:03;;;;;;;2.15;1.95;;;;;;;22.41;50.22;93606.31;5068983;28;20044;-90
2022/06/06 10:10:05;;;;;;;1.63;1.52;;;;;;;22.43;50.21;93612.03;5049519;28;20491;-89
2022/06/06 10:12:49;;;;;;;3.28;1.90;;;;;;;22.42;50.35;93616.06;5034122;28;20051;-89
2022/06/06 10:15:31;;;;;;;1.60;1.50;;;;;;;22.43;50.28;93612.03;5014679;28;20235;-89
2022/06/06 10:18:09;;;;;;;4.30;1.95;;;;;;;22.41;50.36;93620.09;5033743;28;20051;-88
2022/06/06 10:20:40;;;;;;;2.05;1.85;;;;;;;22.41;50.41;93622.84;5053361;28;20055;-89
2022/06/06 10:23:12;;;;;;;1.73;1.63;;;;;;;22.43;50.28;93614.78;5048084;28;20521;-89
2022/06/06 10:25:50;;;;;;;1.92;1.30;;;;;;;22.42;50.44;93624.31;5048051;28;20045;-89
2022/06/06 10:28:33;;;;;;;1.30;1.17;;;;;;;22.42;50.41;93624.31;5010225;28;20041;-90
2022/06/06 10:31:07;;;;;;;1.75;1.45;;;;;;;22.42;50.17;93622.31;5067767;28;20041;-88
2022/06/06 10:34:02;;;;;;;1.83;1.55;;;;;;;22.43;50.29;93612.03;5049711;28;20033;-89
2022/06/06 10:36:46;;;;;;;2.25;1.90;;;;;;;22.43;50.36;93614.78;5052103;28;20483;-88
2022/06/06 10:39:37;;;;;;;2.88;1.90;;;;;;;22.42;50.16;93618.81;5049132;28;20115;-89
2022/06/06 10:42:34;;;;;;;1.90;1.70;;;;;;;22.40;50.38;93616.59;5050387;28;20045;-88
2022/06/06 10:45:16;;;;;;;1.50;1.27;;;;;;;22.43;50.43;93620.31;5033339;28;20175;-89
2022/06/06 10:48:01;;;;;;;1.30;1.20;;;;;;;22.43;50.31;93612.03;5030514;28;20049;-89
2022/06/06 10:54:00;;;;;;;3.58;1.20;;;;;;;22.44;50.20;93608.00;5047724;28;20036;-89
2022/06/06 10:57:03;;;;;;;1.50;1.27;;;;;;;22.40;50.37;93605.56;5047049;28;20032;-90
2022/06/06 10:59:57;;;;;;;1.58;1.42;;;;;;;22.41;50.22;93617.34;5061151;28;20036;-88
2022/06/06 11:02:22;;;;;;;1.92;1.73;;;;;;;22.43;50.12;93618.28;5067557;28;20487;-90
2022/06/06 11:05:00;;;;;;;1.35;1.25;;;;;;;22.42;50.35;93610.56;5067446;28;20048;-89
2022/06/06 11:07:31;;;;;;;1.70;1.17;;;;;;;22.46;50.35;93613.72;5046592;28;20425;-89
2022/06/06 11:10:16;;;;;;;1.60;1.13;;;;;;;22.42;50.48;93605.03;5046357;28;20519;-88
2022/06/06 11:12:44;;;;;;;1.63;1.20;;;;;;;22.44;50.27;93603.25;5048045;28;20045;-89
2022/06/06 11:15:09;;;;;;;1.77;1.60;;;;;;;22.45;50.25;93601.22;5028881;28;20125;-89
2022/06/06 11:17:44;;;;;;;1.83;1.52;;;;;;;22.46;50.20;93605.47;5029304;28;20037;-90
2022/06/06 11:20:21;;;;;;;3.00;1.60;;;;;;;22.43;50.25;93606.53;5045249;28;20037;-89
2022/06/06 11:23:04;;;;;;;1.52;1.30;;;;;;;22.45;50.14;93609.50;5047555;28;20036;-88
2022/06/06 11:25:41;;;;;;;1.80;1.30;;;;;;;22.45;50.38;93607.47;5030176;28;20090;-89
2022/06/06 11:28:28;;;;;;;1.40;1.20;;;;;;;22.44;50.19;93606.00;5029483;28;20041;-89
2022/06/06 11:30:56;;;;;;;1.90;1.33;;;;;;;22.44;50.30;93614.25;5045720;28;20148;-89
2022/06/06 11:33:48;;;;;;;2.10;1.60;;;;;;;22.43;50.52;93606.53;5045378;28;20060;-88
2022/06/06 11:36:23;;;;;;;1.35;1.25;;;;;;;22.45;50.50;93606.75;5045629;28;20399;-89
2022/06/06 11:39:02;;;;;;;1.98;1.55;;;;;;;22.45;50.20;93609.50;5045383;28;20044;-89
2022/06/06 11:41:52;;;;;;;2.65;1.80;;;;;;;22.44;50.54;93606.00;5029879;28;20518;-88
2022/06/06 11:44:33;;;;;;;2.08;1.50;;;;;;;22.45;50.38;93599.22;5044826;28;20048;-90
2022/06/06 11:47:04;;;;;;;1.63;1.50;;;;;;;22.44;50.17;93597.00;5046395;28;20307;-89
2022/06/06 11:49:39;;;;;;;1.48;1.38;;;;;;;22.43;50.29;93596.25;5045493;28;20045;-89
2022/06/06 11:52:39;;;;;;;1.40;1.20;;;;;;;22.45;50.38;93593.69;5046821;28;20056;-88
2022/06/06 11:55:10;;;;;;;1.73;1.10;;;;;;;22.47;50.19;93590.41;5031262;28;20104;-90
2022/06/06 11:57:40;;;;;;;;;;;;;;;22.44;50.33;93592.22;5029038;28;20037;-88
2022/06/06 12:00:28;;;;;;;1.20;1.10;;;;;;;22.45;50.16;93593.69;5029311;28;19920;-89
2022/06/06 12:03:15;;;;;;;1.10;1.00;;;;;;;22.46;50.29;93591.69;5053783;28;20118;-88
2022/06/06 12:06:10;;;;;;;1.98;1.17;;;;;;;22.45;50.27;93601.22;5048368;28;20695;-89
2022/06/06 12:08:59;;;;;;;1.77;1.67;;;;;;;22.44;50.22;93592.22;5024658;28;20025;-89
2022/06/06 12:11:49;;;;;;;1.23;1.13;;;;;;;22.48;50.36;93589.16;5039207;28;20570;-88
2022/06/06 12:14:24;;;;;;;2.60;1.00;;;;;;;22.45;50.33;93584.69;5066201;28;20060;-89
2022/06/06 12:17:04;;;;;;;3.05;1.30;;;;;;;22.46;50.28;93575.16;5067001;28;20507;-89
2022/06/06 12:19:43;;;;;;;1.90;1.02;;;;;;;22.47;50.37;93585.66;5047055;28;20041;-88
2022/06/06 12:22:30;;;;;;;2.40;1.42;;;;;;;22.47;50.55;93577.38;5013221;28;20280;-89
2022/06/06 12:25:22;;;;;;;0.90;0.88;;;;;;;22.47;50.22;93573.88;5045156;28;20045;-89
2022/06/06 12:28:10;;;;;;;2.25;1.40;;;;;;;22.50;50.31;93564.56;5046586;28;20048;-89
2022/06/06 12:31:09;;;;;;;1.65;1.38;;;;;;;22.47;50.49;93566.38;5028286;28;20049;-88
2022/06/06 12:33:37;;;;;;;1.35;1.23;;;;;;;22.50;50.29;93572.81;5044461;28;20049;-90
2022/06/06 12:36:16;;;;;;;1.55;1.45;;;;;;;22.49;50.38;93574.09;5028321;28;20099;-89
2022/06/06 12:39:19;;;;;;;0.90;0.90;;;;;;;22.49;50.25;93560.31;5030279;28;20613;-89